Otwock, Poland
Current Conditions -  °F | °C
As of 8:00 AM on Monday 26 Jan 2015 (Local Time) from EPWA Reporting Station
Overcast Overcast  
Wind Chill: 28°   Ceiling: 3900
Heat Index: 28°   Visibility: 4mi
Dew Point: 28°   Wind: 3mph
Humidity: 100%   Direction: 290°WNW
Pressure: 30.21"   Gusts: NA
Location:  52.11°N, 21.28°E
Report Text: EPWA 260600Z 29003KT 260V320 7000 OVC039 M02/M02 Q1023 R33/2///95 TEMPO BKN005
Loading
Personal Weather Stations






























Interactive Weather Map New forecast layout! Learn more

10-Day Weather Forecast

Advertisements
Track Severe Weather on mobile